Time;durP1;ratioP1;P1;durP2;ratioP2;P2;SDS_P1;SDS_P2;PMS_P1;PMS_P2;Temp;Humidity;BMP_temperature;BMP_pressure;BME280_temperature;BME280_humidity;BME280_pressure;Samples;Min_cycle;Max_cycle;Signal;HPM_P1;HPM_P2
2023/11/24 00:01:07;;;;;;;6.78;1.42;;;;;;;9.77;57.54;100894.06;5003221;28;20410;-76
2023/11/24 00:03:35;;;;;;;4.80;1.60;;;;;;;9.76;57.62;100894.19;5005583;28;20111;-75
2023/11/24 00:06:03;;;;;;;4.65;1.50;;;;;;;9.76;57.49;100891.47;5007205;28;20042;-76
2023/11/24 00:08:30;;;;;;;5.35;1.60;;;;;;;9.74;57.48;100890.75;5004685;28;20125;-76
2023/11/24 00:10:59;;;;;;;4.32;1.67;;;;;;;9.75;57.33;100893.31;5005762;28;20479;-76
2023/11/24 00:13:28;;;;;;;4.28;1.38;;;;;;;9.74;56.92;100885.28;5008269;28;20062;-75
2023/11/24 00:15:56;;;;;;;7.55;2.15;;;;;;;9.73;57.13;100892.59;5010460;28;20133;-75
2023/11/24 00:18:24;;;;;;;9.60;2.67;;;;;;;9.72;57.05;100890.00;5009281;28;20050;-75
2023/11/24 00:20:53;;;;;;;6.53;2.33;;;;;;;9.71;56.78;100900.06;5008633;28;20073;-75
2023/11/24 00:23:21;;;;;;;6.55;1.73;;;;;;;9.70;57.20;100898.31;5009476;28;20096;-75
2023/11/24 00:25:49;;;;;;;6.47;1.60;;;;;;;9.70;57.14;100911.97;5009577;28;20060;-75
2023/11/24 00:28:18;;;;;;;7.00;1.88;;;;;;;9.70;56.83;100903.78;5007163;28;20124;-76
2023/11/24 00:30:48;;;;;;;8.32;2.33;;;;;;;9.69;56.64;100912.09;5007141;28;20133;-75
2023/11/24 00:33:18;;;;;;;6.28;1.55;;;;;;;9.67;56.79;100912.22;5008449;28;20046;-75
2023/11/24 00:35:46;;;;;;;5.55;1.88;;;;;;;9.66;56.44;100923.31;5007730;28;20053;-75
2023/11/24 00:38:14;;;;;;;6.28;1.58;;;;;;;9.65;56.38;100906.03;5007140;28;20041;-75
2023/11/24 00:40:42;;;;;;;11.07;1.80;;;;;;;9.65;56.40;100902.44;5009342;28;20049;-75
2023/11/24 00:43:10;;;;;;;8.15;2.10;;;;;;;9.63;56.07;100899.84;5010609;28;20116;-75
2023/11/24 00:45:39;;;;;;;9.32;2.08;;;;;;;9.64;56.17;100907.03;5010123;28;20046;-75
2023/11/24 00:48:07;;;;;;;5.82;1.73;;;;;;;9.62;55.73;100919.09;4998059;28;20052;-75
2023/11/24 00:50:35;;;;;;;6.13;1.70;;;;;;;9.62;55.79;100911.75;4993904;28;20081;-75
2023/11/24 00:53:03;;;;;;;5.72;2.03;;;;;;;9.60;55.81;100919.19;4994101;28;20097;-75
2023/11/24 00:55:31;;;;;;;7.45;1.95;;;;;;;9.59;55.71;100913.84;4993280;28;20077;-75
2023/11/24 00:57:59;;;;;;;7.68;2.00;;;;;;;9.59;56.03;100917.47;4988629;28;20128;-75
2023/11/24 01:00:28;;;;;;;6.55;2.08;;;;;;;9.58;55.48;100928.50;4984858;28;20055;-75
2023/11/24 01:02:58;;;;;;;6.57;1.88;;;;;;;9.59;55.86;100927.53;4990792;28;20056;-75
2023/11/24 01:05:26;;;;;;;6.65;1.92;;;;;;;9.57;55.75;100929.53;4992701;28;20038;-75
2023/11/24 01:07:54;;;;;;;7.45;1.83;;;;;;;9.56;55.90;100936.00;4979517;28;20143;-75
2023/11/24 01:10:22;;;;;;;8.40;1.88;;;;;;;9.56;55.63;100934.13;4984736;28;20066;-75
2023/11/24 01:12:51;;;;;;;8.45;2.08;;;;;;;9.55;55.46;100954.25;4987931;28;20050;-75
2023/11/24 01:15:20;;;;;;;6.78;1.90;;;;;;;9.54;54.86;100966.16;4993816;28;20510;-76
2023/11/24 01:17:48;;;;;;;7.05;1.90;;;;;;;9.52;54.86;100959.94;4984815;28;20049;-76
2023/11/24 01:20:18;;;;;;;8.13;1.52;;;;;;;9.52;54.15;100968.13;4981453;28;20447;-77
2023/11/24 01:22:46;;;;;;;6.78;1.90;;;;;;;9.47;54.57;100964.94;4992494;28;20104;-76
2023/11/24 01:25:14;;;;;;;5.78;1.80;;;;;;;9.43;54.30;100958.84;4991290;28;20400;-76
2023/11/24 01:27:42;;;;;;;6.30;1.50;;;;;;;9.40;54.32;100948.19;4981470;28;20070;-76
2023/11/24 01:30:11;;;;;;;7.68;1.80;;;;;;;9.38;54.29;100958.34;4985971;28;20038;-76
2023/11/24 01:32:39;;;;;;;6.78;1.70;;;;;;;9.33;54.02;100959.69;4988592;28;20050;-76
2023/11/24 01:35:09;;;;;;;5.43;2.03;;;;;;;9.30;54.44;100952.59;4984679;28;20042;-76
2023/11/24 01:37:40;;;;;;;4.97;1.90;;;;;;;9.27;54.21;100952.84;4984660;28;20321;-75
2023/11/24 01:40:10;;;;;;;5.95;1.80;;;;;;;9.23;54.34;100936.84;5006958;28;20042;-76
2023/11/24 01:42:39;;;;;;;6.80;2.08;;;;;;;9.20;54.40;100931.63;4990769;28;20052;-76
2023/11/24 01:45:10;;;;;;;7.78;2.55;;;;;;;9.18;54.27;100930.88;4983571;28;20062;-76
2023/11/24 01:47:39;;;;;;;7.68;2.38;;;;;;;9.16;54.39;100924.69;4990395;28;20415;-76
2023/11/24 01:50:09;;;;;;;6.68;2.33;;;;;;;9.16;54.50;100941.06;4990024;28;20038;-76
2023/11/24 01:52:40;;;;;;;6.80;2.03;;;;;;;9.13;54.47;100936.72;4991325;28;20113;-75
2023/11/24 01:55:12;;;;;;;8.45;2.67;;;;;;;9.09;54.28;100930.59;4998528;28;20044;-75
2023/11/24 01:57:41;;;;;;;6.85;2.10;;;;;;;9.08;54.65;100933.50;4991005;28;20050;-75
2023/11/24 02:00:13;;;;;;;6.10;1.90;;;;;;;9.07;54.60;100923.56;4988631;28;20038;-75
2023/11/24 02:02:41;;;;;;;6.75;1.92;;;;;;;9.05;54.74;100926.41;4992001;28;20061;-76
2023/11/24 02:05:11;;;;;;;8.13;1.80;;;;;;;9.04;54.88;100926.53;4992372;28;20038;-75
2023/11/24 02:07:41;;;;;;;6.72;1.48;;;;;;;9.04;54.92;100930.13;4989397;28;20104;-75
2023/11/24 02:10:12;;;;;;;8.15;2.00;;;;;;;9.01;54.55;100927.63;4988213;28;20175;-75
2023/11/24 02:12:40;;;;;;;4.43;1.52;;;;;;;9.00;55.03;100925.88;4989582;28;20080;-75
2023/11/24 02:15:09;;;;;;;5.43;1.35;;;;;;;9.01;54.53;100919.44;4985540;28;20065;-75
2023/11/24 02:17:37;;;;;;;6.35;1.80;;;;;;;9.00;54.92;100905.94;4987359;28;20046;-75
2023/11/24 02:20:11;;;;;;;7.60;1.83;;;;;;;9.01;54.12;100905.78;4991206;28;20557;-75
2023/11/24 02:22:42;;;;;;;6.03;1.52;;;;;;;8.99;54.16;100910.53;5001399;28;20058;-75
2023/11/24 02:25:10;;;;;;;8.65;1.40;;;;;;;8.96;54.46;100910.75;5009342;28;20042;-75
2023/11/24 02:27:39;;;;;;;4.78;1.50;;;;;;;8.96;54.30;100913.50;4991758;28;20076;-75
2023/11/24 02:30:09;;;;;;;7.05;1.73;;;;;;;8.95;54.19;100905.41;5009117;28;20058;-75
2023/11/24 02:32:37;;;;;;;6.45;1.50;;;;;;;8.92;54.36;100909.25;4987534;28;20057;-75
2023/11/24 02:35:05;;;;;;;5.50;1.30;;;;;;;8.92;54.39;100897.47;5004054;28;20511;-74
2023/11/24 02:37:33;;;;;;;6.25;1.90;;;;;;;8.89;53.72;100901.31;5004848;28;20419;-75
2023/11/24 02:40:04;;;;;;;6.82;1.52;;;;;;;8.90;53.49;100896.75;5007467;28;20046;-75
2023/11/24 02:42:32;;;;;;;6.15;1.42;;;;;;;8.87;53.60;100888.78;5005344;28;20038;-75
2023/11/24 02:45:00;;;;;;;8.15;1.80;;;;;;;8.85;53.71;100888.91;5004279;28;20046;-75
2023/11/24 02:47:28;;;;;;;5.90;2.03;;;;;;;8.84;53.96;100880.84;5006785;28;20412;-75
2023/11/24 02:49:56;;;;;;;5.85;1.65;;;;;;;8.83;53.72;100882.72;5006700;28;20034;-75
2023/11/24 02:52:24;;;;;;;5.80;1.77;;;;;;;8.82;53.43;100877.38;5008665;28;20042;-75
2023/11/24 02:54:53;;;;;;;6.30;1.83;;;;;;;8.79;53.68;100878.47;5005623;28;20505;-75
2023/11/24 02:57:23;;;;;;;8.40;2.22;;;;;;;8.80;53.39;100871.16;5006132;28;20338;-76
2023/11/24 02:59:51;;;;;;;7.57;1.60;;;;;;;8.77;53.26;100869.53;5006228;28;20125;-75
2023/11/24 03:02:18;;;;;;;5.35;1.63;;;;;;;8.75;53.69;100874.28;5007926;28;20469;-74
2023/11/24 03:04:48;;;;;;;4.85;1.30;;;;;;;8.73;53.45;100876.25;5006773;28;20088;-75
2023/11/24 03:07:16;;;;;;;8.70;1.75;;;;;;;8.72;53.20;100874.50;5006927;28;20511;-75
2023/11/24 03:09:44;;;;;;;6.32;1.35;;;;;;;8.71;53.03;100870.91;5005356;28;20503;-75
2023/11/24 03:12:12;;;;;;;6.03;1.45;;;;;;;8.70;52.82;100868.31;5007400;28;20072;-75
2023/11/24 03:14:42;;;;;;;8.18;1.42;;;;;;;8.69;53.01;100861.09;5005863;28;20061;-75
2023/11/24 03:17:11;;;;;;;5.38;1.60;;;;;;;8.66;52.66;100869.56;5029129;28;20053;-75
2023/11/24 03:19:39;;;;;;;6.35;1.40;;;;;;;8.65;53.08;100859.63;5006022;28;20041;-75
2023/11/24 03:22:08;;;;;;;5.40;1.42;;;;;;;8.64;52.99;100855.16;5007436;28;20056;-75
2023/11/24 03:24:36;;;;;;;7.47;1.55;;;;;;;8.61;52.90;100845.34;5005304;28;20070;-75
2023/11/24 03:27:04;;;;;;;6.30;1.80;;;;;;;8.62;52.99;100846.22;5004472;28;20042;-75
2023/11/24 03:29:35;;;;;;;6.82;1.63;;;;;;;8.60;52.77;100842.72;5000547;28;20057;-75
2023/11/24 03:32:05;;;;;;;5.75;1.33;;;;;;;8.60;52.83;100837.28;5005837;28;20034;-75
2023/11/24 03:34:33;;;;;;;6.57;1.85;;;;;;;8.58;52.99;100828.38;5006610;28;20427;-75
2023/11/24 03:37:01;;;;;;;5.38;2.05;;;;;;;8.58;52.58;100839.28;5003699;28;20081;-75
2023/11/24 03:39:29;;;;;;;6.43;1.52;;;;;;;8.57;52.77;100841.13;5002418;28;20038;-75
2023/11/24 03:41:57;;;;;;;6.53;1.30;;;;;;;8.56;52.64;100836.66;5006931;28;20542;-75
2023/11/24 03:44:25;;;;;;;6.38;1.27;;;;;;;8.57;52.70;100834.81;5007151;28;20046;-75
2023/11/24 03:46:53;;;;;;;5.00;1.20;;;;;;;8.55;52.24;100825.88;5005351;28;20050;-75
2023/11/24 03:49:22;;;;;;;5.28;1.40;;;;;;;8.56;52.45;100817.56;5001004;28;20051;-75
2023/11/24 03:51:50;;;;;;;6.60;1.40;;;;;;;8.54;52.20;100818.69;4995442;28;20045;-75
2023/11/24 03:54:21;;;;;;;5.15;1.20;;;;;;;8.53;52.57;100828.72;5001023;28;20522;-75
2023/11/24 03:56:49;;;;;;;4.55;1.20;;;;;;;8.53;52.39;100825.13;5009073;28;20049;-75
2023/11/24 03:59:17;;;;;;;4.80;1.40;;;;;;;8.53;52.36;100822.41;4996864;28;20577;-75
2023/11/24 04:01:45;;;;;;;5.65;1.40;;;;;;;8.52;52.10;100823.38;4988092;28;20042;-75
2023/11/24 04:04:13;;;;;;;6.00;1.20;;;;;;;8.52;52.19;100817.94;4996115;28;20543;-75
2023/11/24 04:06:43;;;;;;;4.65;1.33;;;;;;;8.52;52.04;100818.78;4990140;28;20051;-75
2023/11/24 04:09:11;;;;;;;8.60;1.55;;;;;;;8.50;52.03;100814.47;4989784;28;20175;-75
2023/11/24 04:11:38;;;;;;;3.42;1.10;;;;;;;8.50;51.96;100809.88;4990603;28;20045;-75
2023/11/24 04:14:06;;;;;;;4.28;1.17;;;;;;;8.50;51.54;100809.03;4991753;28;20046;-75
2023/11/24 04:16:35;;;;;;;3.92;1.02;;;;;;;8.49;51.86;100813.59;5015168;28;20049;-75
2023/11/24 04:19:05;;;;;;;4.40;1.02;;;;;;;8.48;51.67;100808.25;4994836;28;20096;-75
2023/11/24 04:21:34;;;;;;;3.50;0.93;;;;;;;8.46;51.51;100800.19;5027824;28;20101;-75
2023/11/24 04:24:03;;;;;;;5.50;1.20;;;;;;;8.45;51.33;100806.63;4997600;28;20049;-75
2023/11/24 04:26:31;;;;;;;5.88;1.40;;;;;;;8.44;51.34;100807.63;4992354;28;20105;-75
2023/11/24 04:28:59;;;;;;;3.75;1.10;;;;;;;8.44;51.31;100804.03;4991446;28;20077;-75
2023/11/24 04:31:27;;;;;;;4.45;1.27;;;;;;;8.43;51.31;100808.63;4991864;28;20030;-75
2023/11/24 04:33:55;;;;;;;4.35;1.00;;;;;;;8.43;51.24;100818.66;4992024;28;20050;-75
2023/11/24 04:36:23;;;;;;;2.58;0.88;;;;;;;8.42;51.38;100814.22;4992072;28;20049;-75
2023/11/24 04:38:51;;;;;;;5.03;1.13;;;;;;;8.43;51.13;100810.47;4988019;28;20515;-75
2023/11/24 04:41:20;;;;;;;5.35;1.20;;;;;;;8.43;50.89;100811.34;4989318;28;20046;-75
2023/11/24 04:43:48;;;;;;;3.28;0.80;;;;;;;8.41;51.08;100804.28;4990799;28;20121;-75
2023/11/24 04:46:16;;;;;;;3.30;1.20;;;;;;;8.40;50.84;100805.28;5008147;28;20132;-75
2023/11/24 04:48:44;;;;;;;4.15;0.90;;;;;;;8.40;50.94;100808.00;5007217;28;20141;-75
2023/11/24 04:51:12;;;;;;;2.75;0.85;;;;;;;8.40;50.79;100808.00;5010310;28;20050;-75
2023/11/24 04:53:41;;;;;;;3.20;0.93;;;;;;;8.39;50.81;100807.13;5008338;28;20438;-75
2023/11/24 04:56:09;;;;;;;3.17;0.90;;;;;;;8.39;50.82;100798.09;5008276;28;20140;-75
2023/11/24 04:58:38;;;;;;;3.63;0.90;;;;;;;8.40;50.78;100803.44;5008781;28;20514;-75
2023/11/24 05:01:07;;;;;;;3.55;1.05;;;;;;;8.37;51.34;100790.03;5009978;28;20144;-75
2023/11/24 05:03:35;;;;;;;3.72;0.80;;;;;;;8.37;51.00;100784.56;5009512;28;20422;-75
2023/11/24 05:06:03;;;;;;;3.00;0.90;;;;;;;8.37;51.23;100780.97;5007401;28;20046;-75
2023/11/24 05:08:30;;;;;;;3.00;0.90;;;;;;;8.34;51.03;100788.41;5003407;28;20053;-75
2023/11/24 05:10:58;;;;;;;3.90;1.00;;;;;;;8.36;50.84;100787.41;5009300;28;20034;-75
2023/11/24 05:13:26;;;;;;;3.60;1.60;;;;;;;8.34;50.63;100782.94;5009636;28;20100;-75
2023/11/24 05:15:57;;;;;;;2.20;0.88;;;;;;;8.36;50.89;100779.22;5008648;28;20113;-75
2023/11/24 05:18:25;;;;;;;2.22;0.63;;;;;;;8.32;50.74;100770.44;5009698;28;20165;-75
2023/11/24 05:20:54;;;;;;;3.05;0.88;;;;;;;8.33;50.98;100774.91;5007974;28;20129;-75
2023/11/24 05:23:22;;;;;;;4.65;1.00;;;;;;;8.32;50.92;100779.50;5008516;28;20042;-75
2023/11/24 05:25:49;;;;;;;2.22;0.70;;;;;;;8.31;50.99;100788.66;5009023;28;20295;-75
2023/11/24 05:28:17;;;;;;;2.38;0.82;;;;;;;8.32;50.77;100786.81;5006315;28;20052;-76
2023/11/24 05:30:46;;;;;;;2.35;0.90;;;;;;;8.30;50.69;100796.97;5007250;28;20096;-76
2023/11/24 05:33:15;;;;;;;1.65;0.80;;;;;;;8.31;50.85;100796.84;5008588;28;20064;-76
2023/11/24 05:35:43;;;;;;;4.47;1.10;;;;;;;8.28;50.64;100794.34;5009115;28;20046;-75
2023/11/24 05:38:11;;;;;;;2.58;0.90;;;;;;;8.26;50.87;100801.78;5004868;28;20053;-76
2023/11/24 05:40:39;;;;;;;2.20;0.65;;;;;;;8.24;50.92;100789.28;5008950;28;20046;-75
2023/11/24 05:43:07;;;;;;;4.03;1.20;;;;;;;8.24;51.17;100803.78;5008623;28;20056;-75
2023/11/24 05:45:35;;;;;;;3.50;1.10;;;;;;;8.23;50.78;100798.44;5007932;28;20137;-76
2023/11/24 05:48:03;;;;;;;3.05;0.95;;;;;;;8.21;51.13;100787.66;5007587;28;20473;-75
2023/11/24 05:50:32;;;;;;;3.13;0.85;;;;;;;8.22;51.22;100788.50;5007449;28;20056;-75
2023/11/24 05:53:00;;;;;;;4.30;1.00;;;;;;;8.18;51.02;100782.41;5008897;28;20045;-75
2023/11/24 05:55:28;;;;;;;3.55;0.95;;;;;;;8.17;50.91;100778.00;5008143;28;20064;-75
2023/11/24 05:57:56;;;;;;;1.73;0.60;;;;;;;8.16;51.10;100778.09;5006818;28;20045;-75
2023/11/24 06:00:25;;;;;;;4.10;0.93;;;;;;;8.15;51.32;100769.06;5037347;28;20053;-75
2023/11/24 06:02:53;;;;;;;2.40;0.80;;;;;;;8.14;51.40;100772.75;5006702;28;20041;-75
2023/11/24 06:05:21;;;;;;;3.38;1.00;;;;;;;8.13;51.19;100760.13;5005762;28;20042;-75
2023/11/24 06:07:50;;;;;;;4.28;1.00;;;;;;;8.14;51.22;100763.72;5000873;28;20078;-75
2023/11/24 06:10:22;;;;;;;3.85;1.10;;;;;;;8.12;51.18;100768.38;5005518;28;20065;-74
2023/11/24 06:12:50;;;;;;;3.22;0.80;;;;;;;8.12;51.35;100760.19;5004525;28;20133;-75
2023/11/24 06:15:18;;;;;;;3.92;1.05;;;;;;;8.11;51.25;100755.72;5002731;28;20038;-75
2023/11/24 06:17:48;;;;;;;3.33;0.90;;;;;;;8.11;51.53;100748.44;5002820;28;20147;-75
2023/11/24 06:20:16;;;;;;;2.47;0.80;;;;;;;8.11;51.45;100745.69;5005045;28;20088;-75
2023/11/24 06:22:44;;;;;;;2.65;0.90;;;;;;;8.11;51.53;100739.38;5006331;28;20133;-75
2023/11/24 06:25:14;;;;;;;5.38;1.25;;;;;;;8.11;51.20;100737.53;5003743;28;20414;-75
2023/11/24 06:27:44;;;;;;;1.80;0.73;;;;;;;8.10;51.44;100738.50;5003512;28;20049;-75
2023/11/24 06:30:13;;;;;;;5.35;1.00;;;;;;;8.10;51.28;100732.19;5005156;28;20415;-75
2023/11/24 06:32:41;;;;;;;3.55;1.20;;;;;;;8.07;51.15;100744.22;5006704;28;20054;-76
2023/11/24 06:35:10;;;;;;;3.83;0.93;;;;;;;8.08;51.33;100747.81;5003932;28;20049;-74
2023/11/24 06:37:38;;;;;;;3.20;1.00;;;;;;;8.07;51.17;100744.22;5007170;28;20077;-75
2023/11/24 06:40:11;;;;;;;3.53;1.00;;;;;;;8.05;51.28;100740.75;5001177;28;20038;-76
2023/11/24 06:42:40;;;;;;;;;;;;;;;7.79;51.64;100744.63;5005367;28;20046;-75
2023/11/24 06:45:12;;;;;;;4.35;0.93;;;;;;;8.01;51.28;100750.16;5003043;28;19991;-76
2023/11/24 06:47:41;;;;;;;3.53;1.20;;;;;;;8.02;51.27;100746.44;5003843;28;20062;-74
2023/11/24 06:50:12;;;;;;;5.15;1.20;;;;;;;8.03;50.98;100750.03;5003515;28;20034;-74
2023/11/24 06:52:40;;;;;;;4.95;1.10;;;;;;;8.00;51.17;100742.97;5007430;28;20362;-74
2023/11/24 06:55:10;;;;;;;4.30;0.90;;;;;;;8.00;50.73;100734.81;5004360;28;20034;-75
2023/11/24 06:57:38;;;;;;;3.88;1.05;;;;;;;7.98;50.93;100736.78;5004249;28;20034;-76
2023/11/24 07:00:16;;;;;;;4.07;0.70;;;;;;;7.99;50.77;100746.69;5004852;28;20119;-75
2023/11/24 07:02:45;;;;;;;4.00;0.90;;;;;;;7.96;50.81;100746.91;5001804;28;20529;-75
2023/11/24 07:05:13;;;;;;;2.22;0.70;;;;;;;7.94;51.09;100744.31;5005855;28;20450;-75
2023/11/24 07:07:41;;;;;;;3.08;0.80;;;;;;;7.92;50.69;100743.59;5003888;28;20367;-75
2023/11/24 07:10:11;;;;;;;2.22;0.80;;;;;;;7.91;50.42;100754.59;5003419;28;20052;-75
2023/11/24 07:12:42;;;;;;;3.88;0.88;;;;;;;7.89;50.63;100756.56;5006829;28;20526;-75
2023/11/24 07:15:12;;;;;;;2.35;0.60;;;;;;;7.87;50.34;100764.84;5004362;28;20542;-75
2023/11/24 07:17:40;;;;;;;3.00;1.00;;;;;;;7.86;50.80;100754.06;5004585;28;20149;-75
2023/11/24 07:20:11;;;;;;;2.80;0.80;;;;;;;7.85;50.60;100739.56;5001128;28;20049;-75
2023/11/24 07:22:39;;;;;;;2.38;0.70;;;;;;;7.84;50.61;100745.16;5005472;28;20053;-75
2023/11/24 07:25:09;;;;;;;4.10;0.93;;;;;;;7.85;50.83;100744.16;5004835;28;20478;-77
2023/11/24 07:38:59;;;;;;;2.38;0.75;;;;;;;7.74;51.20;100744.13;4870582;24;20055;-76
2023/11/24 07:41:27;;;;;;;3.03;0.90;;;;;;;7.75;51.24;100743.16;4871216;29;20088;-77
2023/11/24 07:43:56;;;;;;;2.17;0.90;;;;;;;7.75;51.40;100743.16;4887450;29;20043;-77
2023/11/24 07:46:24;;;;;;;2.28;0.85;;;;;;;7.76;51.43;100750.34;4874506;29;20059;-78
2023/11/24 07:48:52;;;;;;;2.92;1.00;;;;;;;7.75;51.11;100754.94;4852097;29;20045;-78
2023/11/24 07:51:21;;;;;;;2.78;0.88;;;;;;;7.76;51.09;100747.63;4885445;29;20101;-79
2023/11/24 07:53:49;;;;;;;2.78;1.10;;;;;;;7.75;51.44;100748.59;4890092;29;20065;-76
2023/11/24 07:56:18;;;;;;;2.15;1.00;;;;;;;7.76;51.51;100742.19;4874465;29;20076;-76
2023/11/24 07:58:46;;;;;;;2.45;0.85;;;;;;;7.74;51.30;100738.69;4887675;29;20132;-77
2023/11/24 08:01:14;;;;;;;4.00;1.00;;;;;;;7.73;51.47;100731.50;4885354;29;20072;-77
2023/11/24 08:03:42;;;;;;;4.18;1.10;;;;;;;7.72;51.56;100725.19;4886409;29;20051;-76
2023/11/24 08:06:11;;;;;;;5.05;1.10;;;;;;;7.72;51.71;100717.00;4886697;29;20382;-76
2023/11/24 08:08:39;;;;;;;4.22;1.05;;;;;;;7.72;51.38;100708.84;4863892;29;20459;-77
2023/11/24 08:11:08;;;;;;;5.03;1.40;;;;;;;7.72;51.16;100722.47;4890068;29;20124;-77
2023/11/24 08:13:38;;;;;;;3.30;1.20;;;;;;;7.72;51.54;100714.28;4891822;29;20377;-76
2023/11/24 08:16:06;;;;;;;3.03;1.10;;;;;;;7.70;51.67;100705.34;4873477;29;20055;-76
2023/11/24 08:18:36;;;;;;;5.43;1.35;;;;;;;7.69;51.62;100702.75;4868486;29;20060;-77
2023/11/24 08:21:04;;;;;;;3.60;1.20;;;;;;;7.69;51.85;100700.03;4891248;29;20048;-75
2023/11/24 08:23:32;;;;;;;5.10;1.27;;;;;;;7.68;51.72;100707.34;4874749;29;20049;-76
2023/11/24 08:26:00;;;;;;;4.57;1.10;;;;;;;7.67;51.66;100705.63;4891665;29;20123;-75
2023/11/24 08:28:28;;;;;;;3.97;1.10;;;;;;;7.68;51.48;100706.50;4889863;29;20076;-76
2023/11/24 08:30:57;;;;;;;3.45;1.10;;;;;;;7.70;51.89;100704.50;4885973;29;20101;-75
2023/11/24 08:33:26;;;;;;;4.25;1.10;;;;;;;7.67;51.63;100696.56;4874903;29;20093;-77
2023/11/24 08:35:54;;;;;;;3.03;0.98;;;;;;;7.66;51.33;100684.81;4894870;29;20049;-76
2023/11/24 08:38:23;;;;;;;4.13;1.10;;;;;;;7.65;51.55;100683.06;4878599;29;20044;-76
2023/11/24 08:40:51;;;;;;;5.63;1.08;;;;;;;7.64;51.41;100675.88;4894209;29;20421;-77
2023/11/24 08:43:21;;;;;;;3.63;1.05;;;;;;;7.64;51.56;100677.75;4892691;29;20483;-76
2023/11/24 08:45:49;;;;;;;2.53;1.00;;;;;;;7.63;51.25;100681.44;4891648;29;20123;-76
2023/11/24 08:48:18;;;;;;;2.50;0.80;;;;;;;7.64;51.35;100669.56;4892652;29;20116;-75
2023/11/24 08:50:46;;;;;;;2.65;0.80;;;;;;;7.63;51.30;100668.69;4889148;29;20152;-76
2023/11/24 08:53:14;;;;;;;2.53;0.90;;;;;;;7.63;51.54;100676.88;4893551;29;20147;-76
2023/11/24 08:55:42;;;;;;;1.05;0.60;;;;;;;7.65;51.39;100676.75;4890612;29;20064;-76
2023/11/24 08:58:10;;;;;;;1.83;0.70;;;;;;;7.64;51.39;100675.88;4890032;29;20036;-76
2023/11/24 09:00:38;;;;;;;2.72;0.75;;;;;;;7.65;51.40;100668.59;4890147;29;20052;-74
2023/11/24 09:03:07;;;;;;;3.83;0.90;;;;;;;7.67;51.44;100669.34;4870228;29;20043;-76
2023/11/24 09:05:37;;;;;;;4.45;0.80;;;;;;;7.68;51.50;100677.41;4873942;29;20313;-76
2023/11/24 09:08:05;;;;;;;2.53;0.90;;;;;;;7.68;51.78;100671.94;4882122;29;20049;-76
2023/11/24 09:10:33;;;;;;;2.83;0.88;;;;;;;7.71;51.62;100663.50;4890173;29;20363;-76
2023/11/24 09:13:01;;;;;;;2.78;0.80;;;;;;;7.73;51.79;100666.13;4889449;29;20049;-76
2023/11/24 09:15:29;;;;;;;2.53;1.02;;;;;;;7.74;51.77;100665.13;4890484;29;20522;-76
2023/11/24 09:17:57;;;;;;;1.48;0.70;;;;;;;7.76;51.66;100661.31;4873476;29;20063;-76
2023/11/24 09:20:25;;;;;;;2.50;1.00;;;;;;;7.76;51.39;100650.41;4868853;29;20091;-77
2023/11/24 09:22:54;;;;;;;3.13;0.88;;;;;;;7.80;51.42;100667.38;4890901;29;20045;-76
2023/11/24 09:25:22;;;;;;;2.28;0.95;;;;;;;7.80;51.70;100649.16;4891598;29;20131;-77
2023/11/24 09:27:50;;;;;;;2.67;0.88;;;;;;;7.81;51.34;100648.19;4872550;29;20049;-75
2023/11/24 09:30:18;;;;;;;6.00;1.17;;;;;;;7.82;51.23;100639.03;4892353;29;20063;-76
2023/11/24 09:32:49;;;;;;;4.13;0.80;;;;;;;7.84;51.18;100647.09;4888259;29;20155;-75
2023/11/24 09:35:17;;;;;;;5.30;0.88;;;;;;;7.83;50.94;100626.28;4890817;29;20135;-76
2023/11/24 09:37:45;;;;;;;2.08;0.85;;;;;;;7.82;50.80;100633.56;4884432;29;20044;-76
2023/11/24 09:40:19;;;;;;;2.80;0.95;;;;;;;7.85;50.73;100636.03;4892450;29;20060;-75
2023/11/24 09:42:47;;;;;;;3.75;0.90;;;;;;;7.83;50.70;100629.88;4889815;29;20065;-76
2023/11/24 09:45:19;;;;;;;3.15;0.90;;;;;;;7.84;50.96;100626.16;4880502;29;20045;-76
2023/11/24 09:47:49;;;;;;;3.28;0.95;;;;;;;7.85;50.88;100624.28;4889192;29;20053;-75
2023/11/24 09:50:23;;;;;;;3.90;1.08;;;;;;;7.85;50.58;100627.00;4889992;29;20125;-75
2023/11/24 09:52:54;;;;;;;4.38;0.80;;;;;;;7.84;50.60;100623.44;4873652;29;20057;-76
2023/11/24 09:55:24;;;;;;;3.33;1.08;;;;;;;7.84;50.40;100615.25;4888498;29;20055;-76
2023/11/24 09:57:55;;;;;;;3.88;1.23;;;;;;;7.81;50.27;100618.22;4889194;29;20049;-75
2023/11/24 10:00:26;;;;;;;2.55;0.93;;;;;;;7.82;50.50;100617.22;4892267;29;20566;-76
2023/11/24 10:02:58;;;;;;;3.88;1.10;;;;;;;7.83;50.21;100623.56;4872556;29;20049;-76
2023/11/24 10:05:27;;;;;;;5.15;1.02;;;;;;;7.81;50.39;100626.38;4890290;29;20047;-76
2023/11/24 10:07:56;;;;;;;3.22;0.90;;;;;;;7.80;50.26;100615.59;4892846;29;20041;-76
2023/11/24 10:10:27;;;;;;;2.33;0.90;;;;;;;7.80;50.21;100624.66;4873580;29;20658;-76
2023/11/24 10:12:58;;;;;;;2.67;0.85;;;;;;;7.78;50.56;100615.72;4884798;29;20566;-74
2023/11/24 10:15:27;;;;;;;2.95;0.80;;;;;;;7.77;50.22;100614.00;4891007;29;20045;-76
2023/11/24 10:17:55;;;;;;;3.10;0.80;;;;;;;7.75;50.52;100621.44;4889653;29;20101;-75
2023/11/24 10:20:27;;;;;;;1.45;0.70;;;;;;;7.77;51.01;100615.84;4892134;29;20047;-76
2023/11/24 10:22:58;;;;;;;1.90;0.60;;;;;;;7.77;51.18;100618.56;4873746;29;20055;-77
2023/11/24 10:25:28;;;;;;;1.02;0.60;;;;;;;7.80;50.56;100593.81;4873034;29;20052;-75
2023/11/24 10:27:58;;;;;;;2.22;0.70;;;;;;;7.79;50.55;100595.66;4887409;29;20074;-75
2023/11/24 10:30:26;;;;;;;3.00;1.00;;;;;;;7.81;50.33;100592.81;4872471;29;20221;-76
2023/11/24 10:32:56;;;;;;;3.83;0.93;;;;;;;7.83;50.25;100596.31;4890273;29;20048;-76
2023/11/24 10:35:24;;;;;;;3.53;0.80;;;;;;;7.83;50.23;100612.66;4892367;29;20270;-77
2023/11/24 10:37:54;;;;;;;1.63;0.70;;;;;;;7.82;50.18;100603.59;4865777;29;20052;-76
2023/11/24 10:40:22;;;;;;;0.75;0.60;;;;;;;7.81;50.25;100588.25;4869424;29;20141;-77
2023/11/24 10:42:55;;;;;;;2.45;1.20;;;;;;;7.83;49.91;100596.31;4885387;29;20501;-76
2023/11/24 10:45:25;;;;;;;2.53;1.00;;;;;;;7.80;50.11;100593.81;4887730;29;20059;-77
2023/11/24 10:48:07;;;;;;;2.97;0.80;;;;;;;7.82;49.90;100587.25;4873162;29;20053;-77
2023/11/24 10:50:42;;;;;;;2.13;0.73;;;;;;;7.79;50.12;100581.19;4892804;29;20116;-77
2023/11/24 10:53:17;;;;;;;3.08;0.80;;;;;;;7.81;49.93;100587.38;4885282;29;20055;-76
2023/11/24 10:55:46;;;;;;;3.10;0.73;;;;;;;7.82;50.42;100591.84;4874715;29;20475;-77
2023/11/24 10:58:18;;;;;;;2.53;1.17;;;;;;;7.85;49.68;100578.81;4890575;29;20121;-76
2023/11/24 11:00:47;;;;;;;2.67;0.82;;;;;;;7.83;50.11;100567.22;4890518;29;20044;-76
2023/11/24 11:03:16;;;;;;;3.60;0.98;;;;;;;7.85;49.60;100573.38;4890826;29;20040;-75
2023/11/24 11:05:57;;;;;;;3.40;0.90;;;;;;;7.89;48.68;100560.38;4896078;29;20060;-76
2023/11/24 11:08:34;;;;;;;1.42;0.77;;;;;;;7.86;49.41;100550.59;4893757;29;20072;-75
2023/11/24 11:11:52;;;;;;;1.77;0.63;;;;;;;7.85;48.47;100556.16;4892273;29;20048;-75
2023/11/24 11:14:22;;;;;;;1.65;0.95;;;;;;;7.86;49.48;100557.91;4861479;29;20048;-75
2023/11/24 11:16:51;;;;;;;1.92;0.90;;;;;;;7.87;49.51;100551.47;4892298;29;20053;-75
2023/11/24 11:19:30;;;;;;;3.40;0.90;;;;;;;7.88;48.80;100545.88;4898499;29;20369;-74
2023/11/24 11:21:59;;;;;;;3.67;0.90;;;;;;;7.86;49.56;100549.72;4896744;29;20080;-74
2023/11/24 11:24:29;;;;;;;2.72;1.10;;;;;;;7.87;49.56;100552.31;4893850;29;20418;-74
2023/11/24 11:26:58;;;;;;;1.98;0.90;;;;;;;7.87;49.57;100549.59;4890402;29;20049;-75
2023/11/24 11:29:31;;;;;;;2.15;0.80;;;;;;;7.89;49.16;100546.75;4882838;29;20490;-80
2023/11/24 11:32:01;;;;;;;2.70;0.88;;;;;;;7.88;49.77;100545.03;4892336;29;20435;-75
2023/11/24 11:34:30;;;;;;;2.50;0.85;;;;;;;7.90;49.42;100549.38;4891898;29;20040;-75
2023/11/24 11:37:07;;;;;;;3.72;1.58;;;;;;;7.90;48.73;100543.91;4894307;29;20056;-75
2023/11/24 11:39:38;;;;;;;2.25;0.70;;;;;;;7.88;49.21;100542.28;4893854;29;20041;-75
2023/11/24 11:42:09;;;;;;;2.50;0.90;;;;;;;7.87;49.37;100527.81;4868383;29;20072;-75
2023/11/24 11:44:46;;;;;;;1.42;0.85;;;;;;;7.88;49.25;100536.84;4888404;29;20069;-75
2023/11/24 11:47:24;;;;;;;3.03;1.27;;;;;;;7.87;49.25;100533.25;4867228;29;20137;-75
2023/11/24 11:49:54;;;;;;;1.92;0.90;;;;;;;7.87;49.00;100551.47;4889250;29;20062;-76
2023/11/24 11:52:25;;;;;;;2.83;0.60;;;;;;;7.85;49.17;100537.94;4887155;29;20500;-77
2023/11/24 11:54:56;;;;;;;1.40;0.60;;;;;;;7.84;49.04;100538.09;4877378;29;20449;-75